createdAt,value
2023-10-06T00:00:20.721Z,83.17
2023-10-06T00:01:13.898Z,82.52
2023-10-06T00:02:08.745Z,82.82
2023-10-06T00:02:59.841Z,82.74
2023-10-06T00:03:58.523Z,82.68
2023-10-06T00:04:53.074Z,82.57
2023-10-06T00:05:51.034Z,82.65
2023-10-06T00:06:44.100Z,82.75
2023-10-06T00:07:34.834Z,83.02
2023-10-06T00:08:34.183Z,83.24
2023-10-06T00:09:29.904Z,83.13
2023-10-06T00:10:27.902Z,83.48
2023-10-06T00:11:30.316Z,82.75
2023-10-06T00:12:21.652Z,82.46
2023-10-06T00:13:30.655Z,82.68
2023-10-06T00:14:40.147Z,83.25
2023-10-06T00:15:41.155Z,83.26
2023-10-06T00:16:40.339Z,82.96
2023-10-06T00:17:34.973Z,82.59
2023-10-06T00:18:28.857Z,82.55
2023-10-06T00:19:32.486Z,83.20
2023-10-06T00:20:27.560Z,83.04
2023-10-06T00:21:22.662Z,82.61
2023-10-06T00:22:19.442Z,82.23
2023-10-06T00:23:15.520Z,82.60
2023-10-06T00:24:06.944Z,82.68
2023-10-06T00:25:00.796Z,82.51
2023-10-06T00:25:53.940Z,82.81
2023-10-06T00:26:45.150Z,82.83
2023-10-06T00:27:39.387Z,82.29
2023-10-06T00:28:33.381Z,82.56
2023-10-06T00:29:24.655Z,82.91
2023-10-06T00:30:21.012Z,83.20
2023-10-06T00:31:14.143Z,82.66
2023-10-06T00:32:24.312Z,83.22
2023-10-06T00:33:19.036Z,82.90
2023-10-06T00:34:12.182Z,83.89
2023-10-06T00:35:23.948Z,83.13
2023-10-06T00:36:15.237Z,83.18
2023-10-06T00:37:12.887Z,83.67
2023-10-06T00:38:18.758Z,82.69
2023-10-06T00:39:13.966Z,83.67
2023-10-06T00:40:12.118Z,83.54
2023-10-06T00:41:07.789Z,83.41
2023-10-06T00:42:05.600Z,83.45
2023-10-06T00:43:01.080Z,83.31
2023-10-06T00:43:52.120Z,83.62
2023-10-06T00:44:46.500Z,83.25
2023-10-06T00:45:40.627Z,83.24
2023-10-06T00:46:31.418Z,82.81
2023-10-06T00:47:22.674Z,83.30
2023-10-06T00:48:16.627Z,83.64
2023-10-06T00:49:08.769Z,83.78
2023-10-06T00:50:00.427Z,83.99
2023-10-06T00:50:51.488Z,83.52
2023-10-06T00:51:42.915Z,83.51
2023-10-06T00:52:35.453Z,83.64
2023-10-06T00:53:36.980Z,83.52
2023-10-06T00:54:28.360Z,83.76
2023-10-06T00:55:20.486Z,83.83
2023-10-06T00:56:12.398Z,83.65
2023-10-06T00:57:09.926Z,83.13
2023-10-06T00:58:02.316Z,83.88
2023-10-06T00:58:53.620Z,83.50
2023-10-06T00:59:44.786Z,83.70
2023-10-06T01:00:38.406Z,83.92
2023-10-06T01:01:29.122Z,83.39
2023-10-06T01:02:19.881Z,83.71
2023-10-06T01:03:15.768Z,83.96
2023-10-06T01:04:09.780Z,83.27
2023-10-06T01:05:01.570Z,83.25
2023-10-06T01:05:59.196Z,83.67
2023-10-06T01:06:49.998Z,84.19
2023-10-06T01:07:41.106Z,84.36
2023-10-06T01:08:31.989Z,84.19
2023-10-06T01:09:34.355Z,84.16
2023-10-06T01:10:35.888Z,83.62
2023-10-06T01:11:29.872Z,83.91
2023-10-06T01:12:21.074Z,83.89
2023-10-06T01:13:15.580Z,83.77
2023-10-06T01:14:06.607Z,83.40
2023-10-06T01:15:06.793Z,84.31
2023-10-06T01:15:58.066Z,84.22
2023-10-06T01:16:53.062Z,84.08
2023-10-06T01:17:45.132Z,83.70
2023-10-06T01:18:36.361Z,84.13
2023-10-06T01:19:34.357Z,84.12
2023-10-06T01:20:51.415Z,84.46
2023-10-06T01:21:48.825Z,84.37
2023-10-06T01:22:45.957Z,84.51
2023-10-06T01:23:36.707Z,84.84
2023-10-06T01:24:29.226Z,84.25
2023-10-06T01:25:23.580Z,84.54
2023-10-06T01:26:14.872Z,84.37
2023-10-06T01:27:08.949Z,84.40
2023-10-06T01:28:04.664Z,84.79
2023-10-06T01:28:58.792Z,85.19
2023-10-06T01:29:54.333Z,84.55
2023-10-06T01:30:45.628Z,85.15
2023-10-06T01:31:41.345Z,84.51
2023-10-06T01:32:32.132Z,84.50
2023-10-06T01:33:23.132Z,84.34
2023-10-06T01:34:13.992Z,84.66
2023-10-06T01:35:06.329Z,84.49
2023-10-06T01:35:56.880Z,84.80
2023-10-06T01:36:53.384Z,84.62
2023-10-06T01:37:46.302Z,84.68
2023-10-06T01:38:37.961Z,84.65
2023-10-06T01:39:32.754Z,84.51
2023-10-06T01:40:23.540Z,84.42
2023-10-06T01:41:14.537Z,84.63
2023-10-06T01:42:08.602Z,84.88
2023-10-06T01:42:59.517Z,85.01
2023-10-06T01:43:50.601Z,85.17
2023-10-06T01:44:41.321Z,84.55
2023-10-06T01:45:32.456Z,84.99
2023-10-06T01:46:25.614Z,85.13
2023-10-06T01:47:19.661Z,85.14
2023-10-06T01:48:14.322Z,85.13
2023-10-06T01:49:05.586Z,85.24
2023-10-06T01:49:58.868Z,85.20
2023-10-06T01:50:50.858Z,85.12
2023-10-06T01:51:43.976Z,85.78
2023-10-06T01:52:41.268Z,85.69
2023-10-06T01:53:35.075Z,85.70
2023-10-06T01:54:29.058Z,85.74
2023-10-06T01:55:23.550Z,85.61
2023-10-06T01:56:15.283Z,85.46
2023-10-06T01:57:11.761Z,85.61
2023-10-06T01:58:04.802Z,84.80
2023-10-06T01:58:56.385Z,85.51
2023-10-06T01:59:47.618Z,85.54
2023-10-06T02:00:39.203Z,85.62
2023-10-06T02:01:30.586Z,85.67
2023-10-06T02:02:25.293Z,85.57
2023-10-06T02:03:22.206Z,85.29
2023-10-06T02:04:15.417Z,85.64
2023-10-06T02:05:08.715Z,85.66
2023-10-06T02:06:01.170Z,86.04
2023-10-06T02:06:54.709Z,85.68
2023-10-06T02:07:46.043Z,85.50
2023-10-06T02:08:36.845Z,85.76
2023-10-06T02:09:29.337Z,85.48
2023-10-06T02:10:20.339Z,85.81
2023-10-06T02:11:13.667Z,86.08
2023-10-06T02:12:05.037Z,85.92
2023-10-06T02:12:56.580Z,86.28
2023-10-06T02:13:47.596Z,85.97
2023-10-06T02:14:38.364Z,85.52
2023-10-06T02:15:29.256Z,85.80
2023-10-06T02:16:24.333Z,85.83
2023-10-06T02:17:15.656Z,85.88
2023-10-06T02:18:13.580Z,86.00
2023-10-06T02:19:10.707Z,86.40
2023-10-06T02:20:01.372Z,86.67
2023-10-06T02:20:52.323Z,86.47
2023-10-06T02:21:52.999Z,86.30
2023-10-06T02:22:43.669Z,86.13
2023-10-06T02:23:38.522Z,86.50
2023-10-06T02:24:29.430Z,86.07
2023-10-06T02:25:21.531Z,86.09
2023-10-06T02:26:14.940Z,86.44
2023-10-06T02:27:05.998Z,86.20
2023-10-06T02:27:57.896Z,86.49
2023-10-06T02:28:52.111Z,86.62
2023-10-06T02:29:44.736Z,86.26
2023-10-06T02:30:38.703Z,87.00
2023-10-06T02:31:29.727Z,87.18
2023-10-06T02:32:22.274Z,86.96
2023-10-06T02:33:13.023Z,87.47
2023-10-06T02:34:13.620Z,86.61
2023-10-06T02:35:05.141Z,87.39
2023-10-06T02:35:57.276Z,87.00
2023-10-06T02:36:48.057Z,87.27
2023-10-06T02:37:39.849Z,87.05
2023-10-06T02:38:42.409Z,86.80
2023-10-06T02:39:39.108Z,86.41
2023-10-06T02:40:45.058Z,86.48
2023-10-06T02:41:39.885Z,86.71
2023-10-06T02:42:34.769Z,87.08
2023-10-06T02:43:28.302Z,87.00
2023-10-06T02:44:24.001Z,87.23
2023-10-06T02:45:21.618Z,86.95
2023-10-06T02:46:12.378Z,87.25
2023-10-06T02:47:05.674Z,87.00
2023-10-06T02:47:59.985Z,87.02
2023-10-06T02:48:51.571Z,87.07
2023-10-06T02:49:49.044Z,87.02
2023-10-06T02:50:45.352Z,87.10
2023-10-06T02:51:48.471Z,87.18
2023-10-06T02:52:43.547Z,86.81
2023-10-06T02:53:36.443Z,86.98
2023-10-06T02:54:31.070Z,87.06
2023-10-06T02:55:22.460Z,86.76
2023-10-06T02:56:17.243Z,87.25
2023-10-06T02:57:07.984Z,87.13
2023-10-06T02:57:59.319Z,87.22
2023-10-06T02:58:52.086Z,87.18
2023-10-06T02:59:44.335Z,86.95
2023-10-06T03:00:37.187Z,87.16
2023-10-06T03:01:27.788Z,87.33
2023-10-06T03:02:18.549Z,87.50
2023-10-06T03:03:19.495Z,87.48
2023-10-06T03:04:12.170Z,87.52
2023-10-06T03:05:11.765Z,87.51
2023-10-06T03:06:08.657Z,87.54
2023-10-06T03:07:00.094Z,87.55
2023-10-06T03:07:51.974Z,87.50
2023-10-06T03:08:43.312Z,87.60
2023-10-06T03:09:44.925Z,87.67
2023-10-06T03:10:44.404Z,87.60
2023-10-06T03:11:37.903Z,87.51
2023-10-06T03:12:32.897Z,87.20
2023-10-06T03:13:34.374Z,87.81
2023-10-06T03:14:38.712Z,87.78
2023-10-06T03:15:39.617Z,87.78
2023-10-06T03:16:33.591Z,87.30
2023-10-06T03:17:24.536Z,87.54
2023-10-06T03:18:17.173Z,87.88
2023-10-06T03:19:08.627Z,87.71
2023-10-06T03:20:12.971Z,87.72
2023-10-06T03:21:13.577Z,87.80
2023-10-06T03:22:07.832Z,87.59
2023-10-06T03:22:58.939Z,87.70
2023-10-06T03:23:58.902Z,87.45
2023-10-06T03:24:59.856Z,87.69
2023-10-06T03:25:57.380Z,87.69
2023-10-06T03:26:49.008Z,87.61
2023-10-06T03:27:41.483Z,87.49
2023-10-06T03:28:39.282Z,87.59
2023-10-06T03:29:45.825Z,87.18
2023-10-06T03:30:36.716Z,87.34
2023-10-06T03:31:41.223Z,87.92
2023-10-06T03:32:40.479Z,87.61
2023-10-06T03:33:33.298Z,87.67
2023-10-06T03:34:24.593Z,88.11
2023-10-06T03:35:26.011Z,88.00
2023-10-06T03:36:27.507Z,88.07
2023-10-06T03:37:35.554Z,87.53
2023-10-06T03:38:27.877Z,87.18
2023-10-06T03:39:29.470Z,87.49
2023-10-06T03:40:30.712Z,87.07
2023-10-06T03:41:26.101Z,86.86
2023-10-06T03:42:21.328Z,87.04
2023-10-06T03:43:15.671Z,87.14
2023-10-06T03:44:06.912Z,86.97
2023-10-06T03:45:13.625Z,86.93
2023-10-06T03:46:04.588Z,87.08
2023-10-06T03:46:56.668Z,87.11
2023-10-06T03:47:49.985Z,87.67
2023-10-06T03:48:40.790Z,87.34
2023-10-06T03:49:34.980Z,88.19
2023-10-06T03:50:28.329Z,87.59
2023-10-06T03:51:20.295Z,87.65
2023-10-06T03:52:11.293Z,88.03
2023-10-06T03:53:02.457Z,88.03
2023-10-06T03:53:57.325Z,88.13
2023-10-06T03:54:49.995Z,87.92
2023-10-06T03:55:41.556Z,88.23
2023-10-06T03:56:33.214Z,87.82
2023-10-06T03:57:24.199Z,87.60
2023-10-06T03:58:17.763Z,87.40
2023-10-06T03:59:16.220Z,87.88
2023-10-06T04:00:09.228Z,87.98
2023-10-06T04:01:10.103Z,87.90
2023-10-06T04:02:04.127Z,88.07
2023-10-06T04:02:55.057Z,88.23
2023-10-06T04:03:45.811Z,87.62
2023-10-06T04:04:40.232Z,87.72
2023-10-06T04:05:33.195Z,87.76
2023-10-06T04:06:24.549Z,87.97
2023-10-06T04:07:15.470Z,87.98
2023-10-06T04:08:18.227Z,88.00
2023-10-06T04:09:11.012Z,88.02
2023-10-06T04:10:08.872Z,88.04
2023-10-06T04:10:59.922Z,88.03
2023-10-06T04:11:50.817Z,88.26
2023-10-06T04:12:41.710Z,87.93
2023-10-06T04:13:32.917Z,87.93
2023-10-06T04:14:23.742Z,88.53
2023-10-06T04:15:15.588Z,88.23
2023-10-06T04:16:06.436Z,88.13
2023-10-06T04:16:59.369Z,88.44
2023-10-06T04:17:50.042Z,88.58
2023-10-06T04:18:41.434Z,88.19
2023-10-06T04:19:32.288Z,87.88
2023-10-06T04:20:23.250Z,88.62
2023-10-06T04:21:14.075Z,88.35
2023-10-06T04:22:05.162Z,88.77
2023-10-06T04:22:56.177Z,88.83
2023-10-06T04:23:47.195Z,88.49
2023-10-06T04:24:37.988Z,88.48
2023-10-06T04:25:29.658Z,88.68
2023-10-06T04:26:20.775Z,88.46
2023-10-06T04:27:11.742Z,88.88
2023-10-06T04:28:02.487Z,88.91
2023-10-06T04:28:54.883Z,88.74
2023-10-06T04:29:45.909Z,88.86
2023-10-06T04:30:37.300Z,88.49
2023-10-06T04:31:28.514Z,89.22
2023-10-06T04:32:19.415Z,88.58
2023-10-06T04:33:12.192Z,88.98
2023-10-06T04:34:02.971Z,88.73
2023-10-06T04:34:53.963Z,88.74
2023-10-06T04:35:53.770Z,88.95
2023-10-06T04:36:44.993Z,88.86
2023-10-06T04:37:37.021Z,88.89
2023-10-06T04:38:28.459Z,89.10
2023-10-06T04:39:21.139Z,88.61
2023-10-06T04:40:18.011Z,88.84
2023-10-06T04:41:10.262Z,88.98
2023-10-06T04:42:01.560Z,89.33
2023-10-06T04:42:52.644Z,89.08
2023-10-06T04:43:46.004Z,88.72
2023-10-06T04:44:37.417Z,88.71
2023-10-06T04:45:32.728Z,89.22
2023-10-06T04:46:23.595Z,89.03
2023-10-06T04:47:14.774Z,89.27
2023-10-06T04:48:09.344Z,88.96
2023-10-06T04:49:00.529Z,88.84
2023-10-06T04:49:54.002Z,88.97
2023-10-06T04:50:44.686Z,88.54
2023-10-06T04:51:35.633Z,88.56
2023-10-06T04:52:28.827Z,88.55
2023-10-06T04:53:19.355Z,88.93
2023-10-06T04:54:10.286Z,88.99
2023-10-06T04:55:04.231Z,89.02
2023-10-06T04:55:55.253Z,88.79
2023-10-06T04:56:46.009Z,89.09
2023-10-06T04:57:36.934Z,88.53
2023-10-06T04:58:30.271Z,88.56
2023-10-06T04:59:21.177Z,89.01
2023-10-06T05:00:20.252Z,88.61
2023-10-06T05:01:12.912Z,88.99
2023-10-06T05:02:04.161Z,88.89
2023-10-06T05:02:54.795Z,89.28
2023-10-06T05:03:46.270Z,89.02
2023-10-06T05:04:37.374Z,89.04
2023-10-06T05:05:28.153Z,89.31
2023-10-06T05:06:19.688Z,88.91
2023-10-06T05:07:10.816Z,89.06
2023-10-06T05:08:03.199Z,89.05
2023-10-06T05:08:54.073Z,88.86
2023-10-06T05:09:44.967Z,89.06
2023-10-06T05:10:35.756Z,88.86
2023-10-06T05:11:26.573Z,88.68
2023-10-06T05:12:20.097Z,88.52
2023-10-06T05:13:11.904Z,88.49
2023-10-06T05:14:03.219Z,88.47
2023-10-06T05:14:53.912Z,88.47
2023-10-06T05:15:44.769Z,88.44
2023-10-06T05:16:36.242Z,88.43
2023-10-06T05:17:28.396Z,88.75
2023-10-06T05:18:19.345Z,88.42
2023-10-06T05:19:10.346Z,88.20
2023-10-06T05:20:02.066Z,88.87
2023-10-06T05:20:53.371Z,88.87
2023-10-06T05:21:44.023Z,89.01
2023-10-06T05:22:34.915Z,89.12
2023-10-06T05:23:27.983Z,89.03
2023-10-06T05:24:18.757Z,88.61
2023-10-06T05:25:14.352Z,88.98
2023-10-06T05:26:08.869Z,88.71
2023-10-06T05:26:59.821Z,88.81
2023-10-06T05:27:51.835Z,88.69
2023-10-06T05:28:44.438Z,88.54
2023-10-06T05:29:37.190Z,88.39
2023-10-06T05:30:29.206Z,88.47
2023-10-06T05:31:19.815Z,88.38
2023-10-06T05:32:11.671Z,88.78
2023-10-06T05:33:02.827Z,88.17
2023-10-06T05:33:53.580Z,87.83
2023-10-06T05:34:44.964Z,88.08
2023-10-06T05:35:40.553Z,88.30
2023-10-06T05:36:32.496Z,88.10
2023-10-06T05:37:23.221Z,87.66
2023-10-06T05:38:16.973Z,88.20
2023-10-06T05:39:12.845Z,87.88
2023-10-06T05:40:04.894Z,87.74
2023-10-06T05:40:55.758Z,87.83
2023-10-06T05:41:48.214Z,87.48
2023-10-06T05:42:42.103Z,87.35
2023-10-06T05:43:32.786Z,87.45
2023-10-06T05:44:25.499Z,87.25
2023-10-06T05:45:19.972Z,87.24
2023-10-06T05:46:11.256Z,86.81
2023-10-06T05:47:02.697Z,86.83
2023-10-06T05:47:56.144Z,87.08
2023-10-06T05:48:47.477Z,87.08
2023-10-06T05:49:40.130Z,86.70
2023-10-06T05:50:31.174Z,85.61
2023-10-06T05:51:24.393Z,84.35
2023-10-06T05:52:15.035Z,83.99
2023-10-06T05:53:07.040Z,82.75
2023-10-06T05:53:57.611Z,81.86
2023-10-06T05:54:48.148Z,80.98
2023-10-06T05:55:42.490Z,79.80
2023-10-06T05:56:33.972Z,78.61
2023-10-06T05:57:24.793Z,77.34
2023-10-06T05:58:15.824Z,76.93
2023-10-06T05:59:06.712Z,75.93
2023-10-06T05:59:57.293Z,74.91
2023-10-06T06:00:57.550Z,73.56
2023-10-06T06:01:57.721Z,73.38
2023-10-06T06:02:49.280Z,72.75
2023-10-06T06:03:46.593Z,72.60
2023-10-06T06:04:39.733Z,71.44
2023-10-06T06:05:31.191Z,70.97
2023-10-06T06:06:25.974Z,71.08
2023-10-06T06:07:16.736Z,71.37
2023-10-06T06:08:10.072Z,70.79
2023-10-06T06:09:01.645Z,69.83
2023-10-06T06:09:52.228Z,69.21
2023-10-06T06:10:43.375Z,69.03
2023-10-06T06:11:34.643Z,69.35
2023-10-06T06:12:25.502Z,68.75
2023-10-06T06:13:20.140Z,68.40
2023-10-06T06:14:17.862Z,67.48
2023-10-06T06:15:10.063Z,66.88
2023-10-06T06:16:01.155Z,67.65
2023-10-06T06:16:51.893Z,67.70
2023-10-06T06:17:42.776Z,66.86
2023-10-06T06:18:35.208Z,65.70
2023-10-06T06:19:26.108Z,66.74
2023-10-06T06:20:19.635Z,66.56
2023-10-06T06:21:10.571Z,66.22
2023-10-06T06:22:06.893Z,66.46
2023-10-06T06:23:01.616Z,66.23
2023-10-06T06:23:52.344Z,66.15
2023-10-06T06:24:42.955Z,65.20
2023-10-06T06:25:38.930Z,64.45
2023-10-06T06:26:30.944Z,63.36
2023-10-06T06:27:23.845Z,62.89
2023-10-06T06:28:15.658Z,62.15
2023-10-06T06:29:09.749Z,60.92
2023-10-06T06:30:00.715Z,60.74
2023-10-06T06:30:51.997Z,60.72
2023-10-06T06:31:44.609Z,59.94
2023-10-06T06:32:36.507Z,60.28
2023-10-06T06:33:27.802Z,60.26
2023-10-06T06:34:18.469Z,60.59
2023-10-06T06:35:14.871Z,59.34
2023-10-06T06:36:06.621Z,58.97
2023-10-06T06:36:57.548Z,58.57
2023-10-06T06:37:52.465Z,57.94
2023-10-06T06:38:43.599Z,57.82
2023-10-06T06:39:35.465Z,57.31
2023-10-06T06:40:27.443Z,56.81
2023-10-06T06:41:18.048Z,56.87
2023-10-06T06:42:09.448Z,57.88
2023-10-06T06:43:04.378Z,58.11
2023-10-06T06:43:59.675Z,59.88
2023-10-06T06:44:52.228Z,60.43
2023-10-06T06:45:43.123Z,61.07
2023-10-06T06:46:34.097Z,62.32
2023-10-06T06:47:27.502Z,61.46
2023-10-06T06:48:20.988Z,61.34
2023-10-06T06:49:12.456Z,60.71
2023-10-06T06:50:04.037Z,60.37
2023-10-06T06:50:54.966Z,60.26
2023-10-06T06:51:45.722Z,59.84
2023-10-06T06:52:37.377Z,58.37
2023-10-06T06:53:28.171Z,57.51
2023-10-06T06:54:20.923Z,57.60
2023-10-06T06:55:15.704Z,58.07
2023-10-06T06:56:07.477Z,56.60
2023-10-06T06:56:58.226Z,55.35
2023-10-06T06:57:56.208Z,55.42
2023-10-06T06:58:49.871Z,56.37
2023-10-06T06:59:41.017Z,56.53
2023-10-06T07:00:32.092Z,56.12
2023-10-06T07:01:23.030Z,56.18
2023-10-06T07:02:13.842Z,56.39
2023-10-06T07:03:05.232Z,55.68
2023-10-06T07:03:56.983Z,56.51
2023-10-06T07:04:48.490Z,56.09
2023-10-06T07:05:40.703Z,56.67
2023-10-06T07:06:34.095Z,56.58
2023-10-06T07:07:25.930Z,56.71
2023-10-06T07:08:16.766Z,56.95
2023-10-06T07:09:14.132Z,56.93
2023-10-06T07:10:07.850Z,55.88
2023-10-06T07:10:58.997Z,55.89
2023-10-06T07:11:50.965Z,56.09
2023-10-06T07:12:46.001Z,55.13
2023-10-06T07:13:37.557Z,55.99
2023-10-06T07:14:31.099Z,54.94
2023-10-06T07:15:22.749Z,54.65
2023-10-06T07:16:15.560Z,54.60
2023-10-06T07:17:07.082Z,54.11
2023-10-06T07:17:59.450Z,53.65
2023-10-06T07:18:50.275Z,53.55
2023-10-06T07:19:41.166Z,53.87
2023-10-06T07:20:32.189Z,54.07
2023-10-06T07:21:25.330Z,54.54
2023-10-06T07:22:16.456Z,54.39
2023-10-06T07:23:07.610Z,54.05
2023-10-06T07:23:58.842Z,53.71
2023-10-06T07:24:51.356Z,53.39
2023-10-06T07:25:42.594Z,53.88
2023-10-06T07:26:33.694Z,54.43
2023-10-06T07:27:25.157Z,54.41
2023-10-06T07:28:15.866Z,55.15
2023-10-06T07:29:07.129Z,54.50
2023-10-06T07:29:59.646Z,54.22
2023-10-06T07:30:51.392Z,55.09
2023-10-06T07:31:42.422Z,54.56
2023-10-06T07:32:33.636Z,54.12
2023-10-06T07:33:24.931Z,53.79
2023-10-06T07:34:15.860Z,54.00
2023-10-06T07:35:07.121Z,54.11
2023-10-06T07:35:58.983Z,53.69
2023-10-06T07:36:50.069Z,54.16
2023-10-06T07:37:45.251Z,54.26
2023-10-06T07:38:36.437Z,54.16
2023-10-06T07:39:27.543Z,54.47
2023-10-06T07:40:22.548Z,55.22
2023-10-06T07:41:20.928Z,53.16
2023-10-06T07:42:14.385Z,53.71
2023-10-06T07:43:06.404Z,54.36
2023-10-06T07:43:57.504Z,53.68
2023-10-06T07:44:48.749Z,53.31
2023-10-06T07:45:39.619Z,53.37
2023-10-06T07:46:33.162Z,54.24
2023-10-06T07:47:25.686Z,54.13
2023-10-06T07:48:16.589Z,54.70
2023-10-06T07:49:07.420Z,54.98
2023-10-06T07:49:58.452Z,55.22
2023-10-06T07:50:50.293Z,54.84
2023-10-06T07:51:41.096Z,54.64
2023-10-06T07:52:34.110Z,54.40
2023-10-06T07:53:25.109Z,55.03
2023-10-06T07:54:16.294Z,54.25
2023-10-06T07:55:10.898Z,54.41
2023-10-06T07:56:07.669Z,53.96
2023-10-06T07:56:58.863Z,54.40
2023-10-06T07:57:50.184Z,55.43
2023-10-06T07:58:45.027Z,55.43
2023-10-06T07:59:37.117Z,56.46
2023-10-06T08:00:31.340Z,56.47
2023-10-06T08:01:22.882Z,56.52
2023-10-06T08:02:14.746Z,56.22
2023-10-06T08:03:05.811Z,56.28
2023-10-06T08:03:56.670Z,56.51
2023-10-06T08:04:47.673Z,56.43
2023-10-06T08:05:39.318Z,56.51
2023-10-06T08:06:30.573Z,57.19
2023-10-06T08:07:27.615Z,57.23
2023-10-06T08:08:18.384Z,57.70
2023-10-06T08:09:11.668Z,57.36
2023-10-06T08:10:04.576Z,57.18
2023-10-06T08:10:55.708Z,57.52
2023-10-06T08:11:46.811Z,57.24
2023-10-06T08:12:37.508Z,57.01
2023-10-06T08:13:34.765Z,56.51
2023-10-06T08:14:26.203Z,56.19
2023-10-06T08:15:22.246Z,55.89
2023-10-06T08:16:13.911Z,55.70
2023-10-06T08:17:06.418Z,55.43
2023-10-06T08:17:57.480Z,55.55
2023-10-06T08:18:48.551Z,55.94
2023-10-06T08:19:39.406Z,55.47
2023-10-06T08:20:32.221Z,54.98
2023-10-06T08:21:24.142Z,54.90
2023-10-06T08:22:15.591Z,54.66
2023-10-06T08:23:08.637Z,54.82
2023-10-06T08:24:02.314Z,54.39
2023-10-06T08:24:54.522Z,54.04
2023-10-06T08:25:59.402Z,53.54
2023-10-06T08:26:53.349Z,53.60
2023-10-06T08:27:45.970Z,53.24
2023-10-06T08:28:36.805Z,53.22
2023-10-06T08:29:27.807Z,52.60
2023-10-06T08:30:21.003Z,52.76
2023-10-06T08:31:16.432Z,52.98
2023-10-06T08:32:07.794Z,52.65
2023-10-06T08:32:58.652Z,52.54
2023-10-06T08:33:49.450Z,53.18
2023-10-06T08:34:40.740Z,52.69
2023-10-06T08:35:31.845Z,52.17
2023-10-06T08:36:23.075Z,51.68
2023-10-06T08:37:15.542Z,51.75
2023-10-06T08:38:08.760Z,52.75
2023-10-06T08:38:59.864Z,53.25
2023-10-06T08:39:50.378Z,52.45
2023-10-06T08:40:45.455Z,52.46
2023-10-06T08:41:44.825Z,52.65
2023-10-06T08:42:37.567Z,52.74
2023-10-06T08:43:31.042Z,52.57
2023-10-06T08:44:24.245Z,52.88
2023-10-06T08:45:22.622Z,52.55
2023-10-06T08:46:14.790Z,52.84
2023-10-06T08:47:24.241Z,52.88
2023-10-06T08:48:21.125Z,52.75
2023-10-06T08:49:13.121Z,52.63
2023-10-06T08:50:04.325Z,52.86
2023-10-06T08:50:56.411Z,52.66
2023-10-06T08:51:50.947Z,51.93
2023-10-06T08:52:42.354Z,51.48
2023-10-06T08:53:36.602Z,51.71
2023-10-06T08:54:30.442Z,51.79
2023-10-06T08:55:22.904Z,51.48
2023-10-06T08:56:16.357Z,50.88
2023-10-06T08:57:07.354Z,50.85
2023-10-06T08:58:04.512Z,51.08
2023-10-06T08:58:55.771Z,51.26
2023-10-06T08:59:47.014Z,51.50
2023-10-06T09:00:38.362Z,51.74
2023-10-06T09:01:31.199Z,51.59
2023-10-06T09:02:22.767Z,51.96
2023-10-06T09:03:15.900Z,52.11
2023-10-06T09:04:10.698Z,52.06
2023-10-06T09:05:02.302Z,52.66
2023-10-06T09:05:55.689Z,52.55
2023-10-06T09:07:07.129Z,52.77
2023-10-06T09:08:08.827Z,52.44
2023-10-06T09:08:59.491Z,51.82
2023-10-06T09:09:51.107Z,51.82
2023-10-06T09:10:50.314Z,51.77
2023-10-06T09:11:42.541Z,52.01
2023-10-06T09:12:36.226Z,51.73
2023-10-06T09:13:28.091Z,51.94
2023-10-06T09:14:20.181Z,51.97
2023-10-06T09:15:17.311Z,51.61
2023-10-06T09:16:08.374Z,51.73
2023-10-06T09:17:02.816Z,52.54
2023-10-06T09:17:55.135Z,52.60
2023-10-06T09:19:01.695Z,52.02
2023-10-06T09:19:52.731Z,51.56
2023-10-06T09:20:43.531Z,51.75
2023-10-06T09:21:34.453Z,51.49
2023-10-06T09:22:31.327Z,51.75
2023-10-06T09:23:38.131Z,52.11
2023-10-06T09:24:29.092Z,52.19
2023-10-06T09:25:20.550Z,52.14
2023-10-06T09:26:13.926Z,52.72
2023-10-06T09:27:21.172Z,53.05
2023-10-06T09:28:18.176Z,52.68
2023-10-06T09:29:11.291Z,51.88
2023-10-06T09:30:23.817Z,52.20
2023-10-06T09:31:14.513Z,52.00
2023-10-06T09:32:23.152Z,52.06
2023-10-06T09:33:13.922Z,52.21
2023-10-06T09:34:10.243Z,52.27
2023-10-06T09:35:22.932Z,52.12
2023-10-06T09:36:36.194Z,52.06
2023-10-06T09:37:33.709Z,51.92
2023-10-06T09:38:27.856Z,52.06
2023-10-06T09:39:34.737Z,52.09
2023-10-06T09:40:25.445Z,52.01
2023-10-06T09:41:30.216Z,51.64
2023-10-06T09:42:20.675Z,51.42
2023-10-06T09:43:17.479Z,51.45
2023-10-06T09:44:13.731Z,50.68
2023-10-06T09:45:13.194Z,50.73
2023-10-06T09:46:10.306Z,50.90
2023-10-06T09:47:02.099Z,50.59
2023-10-06T09:48:00.705Z,50.74
2023-10-06T09:48:52.909Z,50.56
2023-10-06T09:49:46.816Z,50.76
2023-10-06T09:50:41.692Z,50.42
2023-10-06T09:51:34.394Z,51.30
2023-10-06T09:52:29.713Z,50.95
2023-10-06T09:53:21.564Z,50.63
2023-10-06T09:54:13.867Z,49.88
2023-10-06T09:55:05.634Z,50.04
2023-10-06T09:55:57.230Z,49.38
2023-10-06T09:56:48.306Z,49.66
2023-10-06T09:57:44.704Z,50.46
2023-10-06T09:58:36.586Z,49.68
2023-10-06T09:59:28.544Z,49.52
2023-10-06T10:00:20.841Z,49.85
2023-10-06T10:01:15.377Z,50.32
2023-10-06T10:02:09.749Z,50.28
2023-10-06T10:03:02.258Z,50.89
2023-10-06T10:03:53.758Z,50.47
2023-10-06T10:04:47.610Z,50.73
2023-10-06T10:05:41.316Z,50.57
2023-10-06T10:06:32.190Z,50.93
2023-10-06T10:07:24.533Z,50.80
2023-10-06T10:08:16.089Z,50.98
2023-10-06T10:09:09.333Z,50.82
2023-10-06T10:10:00.130Z,50.43
2023-10-06T10:10:53.541Z,50.18
2023-10-06T10:12:21.553Z,49.85
2023-10-06T10:13:50.385Z,49.24
2023-10-06T10:14:50.486Z,49.28
2023-10-06T10:16:27.207Z,49.23
2023-10-06T10:17:59.941Z,48.55
2023-10-06T10:19:00.080Z,48.05
2023-10-06T10:19:52.481Z,48.21
2023-10-06T10:20:47.579Z,48.35
2023-10-06T10:21:42.984Z,48.24
2023-10-06T10:22:35.142Z,48.82
2023-10-06T10:23:27.346Z,48.77
2023-10-06T10:25:25.308Z,48.29
2023-10-06T10:26:23.735Z,48.18
2023-10-06T10:27:18.481Z,47.93
2023-10-06T10:28:22.251Z,48.45
2023-10-06T10:29:18.565Z,48.92
2023-10-06T10:30:13.675Z,48.70
2023-10-06T10:31:06.342Z,48.35
2023-10-06T10:32:12.171Z,48.10
2023-10-06T10:33:08.443Z,48.15
2023-10-06T10:34:08.153Z,48.16
2023-10-06T10:35:15.615Z,48.41
2023-10-06T10:36:19.300Z,48.45
2023-10-06T10:37:13.434Z,48.36
2023-10-06T10:38:07.852Z,48.48
2023-10-06T10:39:20.118Z,48.27
2023-10-06T10:40:15.611Z,48.41
2023-10-06T10:41:09.767Z,48.24
2023-10-06T10:42:00.822Z,48.24
2023-10-06T10:43:06.338Z,47.88
2023-10-06T10:44:14.379Z,48.34
2023-10-06T10:45:31.860Z,49.52
2023-10-06T10:46:43.586Z,48.50
2023-10-06T10:47:34.730Z,48.79
2023-10-06T10:48:33.314Z,49.31
2023-10-06T10:49:24.293Z,49.43
2023-10-06T10:50:15.509Z,48.94
2023-10-06T10:51:13.632Z,48.93
2023-10-06T10:52:08.658Z,48.81
2023-10-06T10:53:00.117Z,48.57
2023-10-06T10:53:53.071Z,48.56
2023-10-06T10:54:44.348Z,48.17
2023-10-06T10:55:36.297Z,48.25
2023-10-06T10:56:44.212Z,48.34
2023-10-06T10:57:36.277Z,48.15
2023-10-06T10:58:45.696Z,48.13
2023-10-06T11:00:13.268Z,48.17
2023-10-06T11:01:24.230Z,48.56
2023-10-06T11:02:15.765Z,48.37
2023-10-06T11:03:07.206Z,48.10
2023-10-06T11:04:19.732Z,47.94
2023-10-06T11:05:11.347Z,48.16
2023-10-06T11:06:04.897Z,48.38
2023-10-06T11:06:56.938Z,48.36
2023-10-06T11:07:59.802Z,48.11
2023-10-06T11:08:52.328Z,47.67
2023-10-06T11:09:49.881Z,47.47
2023-10-06T11:10:40.942Z,47.75
2023-10-06T11:11:35.237Z,48.02
2023-10-06T11:12:27.229Z,47.84
2023-10-06T11:13:20.170Z,47.66
2023-10-06T11:14:13.342Z,47.31
2023-10-06T11:15:14.876Z,47.20
2023-10-06T11:16:06.082Z,47.47
2023-10-06T11:17:03.844Z,47.66
2023-10-06T11:17:59.887Z,47.62
2023-10-06T11:18:51.688Z,47.48
2023-10-06T11:19:42.638Z,47.96
2023-10-06T11:20:40.735Z,47.33
2023-10-06T11:21:34.218Z,47.61
2023-10-06T11:22:24.955Z,47.42
2023-10-06T11:23:15.867Z,47.49
2023-10-06T11:24:07.919Z,47.45
2023-10-06T11:25:04.006Z,47.17
2023-10-06T11:25:56.415Z,47.31
2023-10-06T11:26:48.088Z,47.31
2023-10-06T11:27:40.474Z,47.18
2023-10-06T11:28:42.829Z,47.00
2023-10-06T11:29:33.461Z,46.91
2023-10-06T11:30:27.458Z,47.01
2023-10-06T11:31:18.741Z,46.72
2023-10-06T11:32:09.652Z,46.47
2023-10-06T11:33:05.924Z,46.52
2023-10-06T11:33:57.243Z,46.90
2023-10-06T11:34:50.033Z,47.14
2023-10-06T11:35:42.104Z,47.04
2023-10-06T11:36:33.118Z,46.79
2023-10-06T11:37:26.270Z,46.65
2023-10-06T11:38:18.472Z,46.95